Time;durP1;ratioP1;P1;durP2;ratioP2;P2;SDS_P1;SDS_P2;PMS_P1;PMS_P2;Temp;Humidity;BMP_temperature;BMP_pressure;BME280_temperature;BME280_humidity;BME280_pressure;Samples;Min_cycle;Max_cycle;Signal;HPM_P1;HPM_P2
2022/12/08 00:01:50;;;;;;;2.45;0.32;;;;;;;;;;4989911;28;20402;-89
2022/12/08 00:09:20;;;;;;;1.15;0.60;;;;;;;;;;5007543;28;20541;-89
2022/12/08 00:10:02;;;;;;;0.60;0.47;;;;;;;;;;5010967;28;20053;-89
2022/12/08 00:12:28;;;;;;;2.20;0.55;;;;;;;;;;5006008;28;21292;-89
2022/12/08 00:14:54;;;;;;;1.00;0.52;;;;;;;;;;5001972;28;20034;-89
2022/12/08 00:17:20;;;;;;;1.45;0.43;;;;;;;;;;5006962;28;20026;-89
2022/12/08 00:19:46;;;;;;;1.98;0.35;;;;;;;;;;5010073;28;20061;-89
2022/12/08 00:22:13;;;;;;;2.83;0.73;;;;;;;;;;4994189;28;20103;-89
2022/12/08 00:24:40;;;;;;;6.68;1.05;;;;;;;;;;5021271;28;20533;-89
2022/12/08 00:27:08;;;;;;;1.33;0.70;;;;;;;;;;5009152;28;20037;-89
2022/12/08 00:29:34;;;;;;;2.53;1.20;;;;;;;;;;5009572;28;20079;-89
2022/12/08 00:32:00;;;;;;;3.35;1.08;;;;;;;;;;4989679;28;20387;-89
2022/12/08 00:34:27;;;;;;;9.57;0.88;;;;;;;;;;4997598;28;20040;-89
2022/12/08 00:36:53;;;;;;;4.43;1.10;;;;;;;;;;5030052;28;20033;-89
2022/12/08 00:39:19;;;;;;;12.02;1.42;;;;;;;;;;5027533;28;20034;-89
2022/12/08 00:44:30;;;;;;;0.95;0.22;;;;;;;;;;5029811;28;20107;-90
2022/12/08 00:46:56;;;;;;;2.00;0.60;;;;;;;;;;4993503;28;20030;-89
2022/12/08 00:49:22;;;;;;;0.93;0.55;;;;;;;;;;5011620;28;20448;-89
2022/12/08 00:51:48;;;;;;;10.13;0.90;;;;;;;;;;5033242;28;20044;-89
2022/12/08 00:54:15;;;;;;;7.38;1.45;;;;;;;;;;5014247;28;20523;-89
2022/12/08 00:56:41;;;;;;;9.80;1.50;;;;;;;;;;4998897;28;20374;-89
2022/12/08 00:59:08;;;;;;;1.23;0.60;;;;;;;;;;5006528;28;20054;-89
2022/12/08 01:01:35;;;;;;;1.88;0.73;;;;;;;;;;5029003;28;20030;-88
2022/12/08 01:04:05;;;;;;;5.43;1.10;;;;;;;;;;4999688;28;20037;-89
2022/12/08 01:06:34;;;;;;;5.45;1.55;;;;;;;;;;5012468;28;20038;-89
2022/12/08 01:09:01;;;;;;;2.10;0.93;;;;;;;;;;5010468;28;20545;-90
2022/12/08 01:11:27;;;;;;;2.65;0.68;;;;;;;;;;5027909;28;20520;-89
2022/12/08 01:13:53;;;;;;;4.30;0.75;;;;;;;;;;4993428;28;20032;-90
2022/12/08 01:16:27;;;;;;;9.38;1.20;;;;;;;;;;4993032;28;20041;-90
2022/12/08 01:18:53;;;;;;;2.95;0.88;;;;;;;;;;4988028;28;20540;-89
2022/12/08 01:21:19;;;;;;;2.90;0.82;;;;;;;;;;4995867;28;20133;-90
2022/12/08 01:23:46;;;;;;;2.47;0.52;;;;;;;;;;5029849;28;20013;-90
2022/12/08 01:26:14;;;;;;;9.75;1.15;;;;;;;;;;5010104;28;20038;-89
2022/12/08 01:28:41;;;;;;;4.00;0.75;;;;;;;;;;5029374;28;20079;-89
2022/12/08 01:31:12;;;;;;;1.05;0.43;;;;;;;;;;5008086;28;20025;-89
2022/12/08 01:33:38;;;;;;;5.55;1.42;;;;;;;;;;5011543;28;20053;-89
2022/12/08 01:36:05;;;;;;;2.63;1.25;;;;;;;;;;5008888;28;20048;-89
2022/12/08 01:38:35;;;;;;;3.13;1.02;;;;;;;;;;5010185;28;20045;-89
2022/12/08 01:41:19;;;;;;;5.10;0.50;;;;;;;;;;5022666;28;20690;-89
2022/12/08 01:44:07;;;;;;;2.53;0.35;;;;;;;;;;5008136;28;20103;-89
2022/12/08 01:46:33;;;;;;;0.70;0.30;;;;;;;;;;5026010;28;20029;-89
2022/12/08 01:49:06;;;;;;;1.80;0.70;;;;;;;;;;5023822;28;20038;-89
2022/12/08 01:51:35;;;;;;;7.20;0.90;;;;;;;;;;5007837;28;20474;-89
2022/12/08 01:54:02;;;;;;;4.78;0.63;;;;;;;;;;5024592;28;20139;-89
2022/12/08 01:56:34;;;;;;;5.90;0.82;;;;;;;;;;5011162;28;20168;-89
2022/12/08 01:59:01;;;;;;;4.50;1.10;;;;;;;;;;5011623;28;20108;-89
2022/12/08 02:01:29;;;;;;;1.83;0.50;;;;;;;;;;5007882;28;20037;-89
2022/12/08 02:04:00;;;;;;;1.35;0.10;;;;;;;;;;4992729;28;20100;-89
2022/12/08 02:06:28;;;;;;;3.17;0.43;;;;;;;;;;5020941;28;20694;-89
2022/12/08 02:08:59;;;;;;;0.90;0.22;;;;;;;;;;5009366;28;20029;-89
2022/12/08 02:11:25;;;;;;;2.38;0.68;;;;;;;;;;5002430;28;20066;-89
2022/12/08 02:13:52;;;;;;;1.75;0.38;;;;;;;;;;5007892;28;20129;-89
2022/12/08 02:16:24;;;;;;;7.70;0.55;;;;;;;;;;5025327;28;20038;-89
2022/12/08 02:19:04;;;;;;;2.63;0.38;;;;;;;;;;5005946;28;20037;-89
2022/12/08 02:21:30;;;;;;;4.13;0.52;;;;;;;;;;5005683;28;20040;-89
2022/12/08 02:23:56;;;;;;;1.42;0.32;;;;;;;;;;5024764;28;20029;-88
2022/12/08 02:26:42;;;;;;;1.55;0.40;;;;;;;;;;5010031;28;20060;-88
2022/12/08 02:29:27;;;;;;;2.95;0.45;;;;;;;;;;5004661;28;20061;-88
2022/12/08 02:32:07;;;;;;;7.40;1.08;;;;;;;;;;5020952;28;20480;-88
2022/12/08 02:34:42;;;;;;;11.00;0.40;;;;;;;;;;5023606;28;20124;-89
2022/12/08 02:37:18;;;;;;;2.22;0.35;;;;;;;;;;5012327;28;20104;-89
2022/12/08 02:40:05;;;;;;;1.83;0.28;;;;;;;;;;5014801;28;20120;-89
2022/12/08 02:42:34;;;;;;;4.20;0.35;;;;;;;;;;5009816;28;20033;-89
2022/12/08 02:45:06;;;;;;;1.40;0.32;;;;;;;;;;5009988;28;20036;-89
2022/12/08 02:47:33;;;;;;;0.35;0.10;;;;;;;;;;5015687;28;20049;-89
2022/12/08 02:49:59;;;;;;;1.50;0.40;;;;;;;;;;4999731;28;20026;-89
2022/12/08 02:52:25;;;;;;;1.88;0.32;;;;;;;;;;4997217;28;21351;-89
2022/12/08 02:54:55;;;;;;;0.57;0.30;;;;;;;;;;5024726;28;20022;-89
2022/12/08 02:57:21;;;;;;;0.15;0.10;;;;;;;;;;5011661;28;20068;-89
2022/12/08 02:59:50;;;;;;;2.28;0.10;;;;;;;;;;5028919;28;20093;-89
2022/12/08 03:02:45;;;;;;;1.50;0.60;;;;;;;;;;5012165;28;20045;-89
2022/12/08 03:05:31;;;;;;;5.93;0.75;;;;;;;;;;4977027;28;20049;-90
2022/12/08 03:08:16;;;;;;;8.35;0.73;;;;;;;;;;5024127;28;20729;-90
2022/12/08 03:11:05;;;;;;;1.70;0.57;;;;;;;;;;5009483;28;20029;-89
2022/12/08 03:13:51;;;;;;;3.28;0.38;;;;;;;;;;5007664;28;20041;-90
2022/12/08 03:16:20;;;;;;;1.02;0.40;;;;;;;;;;5022472;28;20030;-90
2022/12/08 03:18:52;;;;;;;0.85;0.30;;;;;;;;;;5007107;28;20029;-90
2022/12/08 03:21:20;;;;;;;3.42;0.38;;;;;;;;;;5012421;28;20555;-89
2022/12/08 03:23:50;;;;;;;1.25;0.40;;;;;;;;;;5010642;28;20052;-89
2022/12/08 03:26:24;;;;;;;0.13;0.10;;;;;;;;;;5009828;28;20934;-90
2022/12/08 03:28:50;;;;;;;6.68;0.30;;;;;;;;;;5030491;28;20494;-89
2022/12/08 03:31:18;;;;;;;1.48;0.28;;;;;;;;;;5027181;28;20531;-89
2022/12/08 03:33:45;;;;;;;3.00;0.15;;;;;;;;;;5014407;28;21923;-88
2022/12/08 03:36:11;;;;;;;1.85;0.65;;;;;;;;;;4995643;28;20033;-88
2022/12/08 03:38:42;;;;;;;4.40;0.80;;;;;;;;;;4996647;28;20184;-88
2022/12/08 03:41:17;;;;;;;1.15;0.35;;;;;;;;;;5027589;28;20031;-88
2022/12/08 03:44:01;;;;;;;2.50;0.28;;;;;;;;;;5008781;28;20389;-89
2022/12/08 03:46:28;;;;;;;1.15;0.45;;;;;;;;;;5009041;28;20041;-89
2022/12/08 03:48:55;;;;;;;0.47;0.22;;;;;;;;;;5017008;28;20041;-89
2022/12/08 03:51:30;;;;;;;2.20;0.68;;;;;;;;;;5013367;28;20049;-89
2022/12/08 03:53:56;;;;;;;2.72;0.85;;;;;;;;;;4999114;28;20029;-90
2022/12/08 03:56:30;;;;;;;2.70;0.65;;;;;;;;;;5029167;28;20477;-90
2022/12/08 03:58:56;;;;;;;4.35;1.15;;;;;;;;;;5011927;28;20118;-90
2022/12/08 04:01:26;;;;;;;2.65;0.60;;;;;;;;;;4994296;28;20065;-90
2022/12/08 04:03:58;;;;;;;1.77;0.93;;;;;;;;;;5024703;28;20029;-89
2022/12/08 04:06:25;;;;;;;1.45;0.68;;;;;;;;;;5011611;28;20087;-89
2022/12/08 04:08:51;;;;;;;5.00;1.30;;;;;;;;;;4988855;28;20045;-89
2022/12/08 04:11:18;;;;;;;2.95;0.80;;;;;;;;;;5024290;28;20023;-90
2022/12/08 04:13:44;;;;;;;1.02;0.55;;;;;;;;;;4999480;28;20048;-89
2022/12/08 04:16:18;;;;;;;2.85;0.73;;;;;;;;;;5012415;28;20033;-89
2022/12/08 04:18:44;;;;;;;7.47;0.82;;;;;;;;;;5009910;28;20120;-89
2022/12/08 04:21:11;;;;;;;4.07;0.93;;;;;;;;;;5001165;28;20057;-89
2022/12/08 04:23:37;;;;;;;1.85;0.88;;;;;;;;;;5009593;28;20571;-89
2022/12/08 04:26:05;;;;;;;6.25;1.05;;;;;;;;;;5011250;28;20044;-89
2022/12/08 04:28:32;;;;;;;2.65;0.95;;;;;;;;;;5024893;28;20485;-89
2022/12/08 04:31:01;;;;;;;5.63;0.77;;;;;;;;;;5008536;28;20029;-89
2022/12/08 04:33:27;;;;;;;5.28;1.10;;;;;;;;;;5009979;28;20085;-89
2022/12/08 04:35:53;;;;;;;2.70;1.17;;;;;;;;;;4994590;28;20026;-89
2022/12/08 04:38:19;;;;;;;5.43;0.52;;;;;;;;;;5005697;28;20060;-89
2022/12/08 04:40:47;;;;;;;1.40;0.68;;;;;;;;;;4993417;28;20041;-88
2022/12/08 04:43:13;;;;;;;2.78;0.65;;;;;;;;;;5021227;28;20053;-88
2022/12/08 04:45:40;;;;;;;1.33;0.30;;;;;;;;;;5000975;28;20041;-89
2022/12/08 04:48:08;;;;;;;1.30;0.50;;;;;;;;;;5016773;28;20128;-89
2022/12/08 04:50:34;;;;;;;1.00;0.30;;;;;;;;;;5003531;28;20523;-89
2022/12/08 04:53:00;;;;;;;5.28;0.52;;;;;;;;;;4987330;28;20040;-89
2022/12/08 04:55:26;;;;;;;3.70;0.30;;;;;;;;;;5002878;28;20034;-89
2022/12/08 04:57:52;;;;;;;2.97;0.70;;;;;;;;;;5002486;28;20041;-89
2022/12/08 05:00:19;;;;;;;8.20;0.60;;;;;;;;;;4993003;28;20737;-89
2022/12/08 05:02:45;;;;;;;6.65;0.47;;;;;;;;;;5023920;28;20421;-89
2022/12/08 05:05:11;;;;;;;8.52;0.52;;;;;;;;;;4997155;28;20536;-89
2022/12/08 05:07:38;;;;;;;9.68;0.90;;;;;;;;;;4995022;28;20390;-89
2022/12/08 05:10:05;;;;;;;5.93;0.73;;;;;;;;;;5010556;28;20034;-89
2022/12/08 05:12:31;;;;;;;3.83;0.30;;;;;;;;;;5008739;28;20029;-89
2022/12/08 05:14:59;;;;;;;2.92;0.50;;;;;;;;;;5001316;28;20029;-88
2022/12/08 05:17:25;;;;;;;3.55;0.90;;;;;;;;;;5004231;28;20029;-89
2022/12/08 05:19:52;;;;;;;16.98;0.77;;;;;;;;;;5009785;28;20049;-89
2022/12/08 05:22:18;;;;;;;2.38;0.30;;;;;;;;;;5007693;28;20055;-89
2022/12/08 05:24:44;;;;;;;2.22;0.65;;;;;;;;;;4992946;28;20087;-90
2022/12/08 05:27:10;;;;;;;9.70;0.57;;;;;;;;;;5023035;28;20048;-90
2022/12/08 05:29:36;;;;;;;1.10;0.52;;;;;;;;;;4990901;28;20029;-89
2022/12/08 05:32:02;;;;;;;1.95;0.50;;;;;;;;;;5008753;28;20037;-89
2022/12/08 05:34:31;;;;;;;9.60;0.85;;;;;;;;;;5009976;28;20025;-89
2022/12/08 05:36:57;;;;;;;3.88;1.30;;;;;;;;;;5012383;28;20079;-89
2022/12/08 05:39:23;;;;;;;6.95;0.68;;;;;;;;;;5003277;28;20548;-89
2022/12/08 05:41:51;;;;;;;2.40;0.88;;;;;;;;;;5009618;28;20029;-88
2022/12/08 05:44:17;;;;;;;7.38;2.40;;;;;;;;;;4995693;28;20143;-89
2022/12/08 05:46:43;;;;;;;11.27;2.55;;;;;;;;;;5011457;28;20128;-89
2022/12/08 05:49:09;;;;;;;6.80;1.02;;;;;;;;;;5011352;28;20029;-89
2022/12/08 05:51:35;;;;;;;5.57;0.70;;;;;;;;;;5010027;28;20041;-89
2022/12/08 05:54:01;;;;;;;9.05;1.13;;;;;;;;;;5007970;28;20030;-89
2022/12/08 05:56:27;;;;;;;14.75;1.00;;;;;;;;;;5005778;28;20041;-89
2022/12/08 05:58:53;;;;;;;9.48;1.33;;;;;;;;;;5007221;28;20080;-89
2022/12/08 06:01:20;;;;;;;7.20;1.63;;;;;;;;;;4994866;28;20065;-89
2022/12/08 06:03:46;;;;;;;3.78;0.85;;;;;;;;;;5012509;28;20801;-89
2022/12/08 06:06:12;;;;;;;2.42;0.93;;;;;;;;;;5001940;28;20125;-90
2022/12/08 06:08:38;;;;;;;1.63;0.43;;;;;;;;;;4993794;28;20069;-89
2022/12/08 06:11:04;;;;;;;3.70;0.50;;;;;;;;;;5006653;28;20028;-89
2022/12/08 06:13:30;;;;;;;0.57;0.40;;;;;;;;;;5017999;28;20053;-89
2022/12/08 06:16:02;;;;;;;4.57;0.75;;;;;;;;;;5009725;28;21176;-89
2022/12/08 06:18:28;;;;;;;2.30;0.70;;;;;;;;;;5013176;28;20088;-89
2022/12/08 06:21:01;;;;;;;3.13;0.70;;;;;;;;;;5003820;28;20173;-90
2022/12/08 06:23:27;;;;;;;4.43;0.98;;;;;;;;;;5008752;28;20470;-90
2022/12/08 06:25:53;;;;;;;9.27;1.10;;;;;;;;;;5007618;28;20559;-89
2022/12/08 06:28:19;;;;;;;10.55;0.65;;;;;;;;;;4980911;28;20053;-89
2022/12/08 06:30:45;;;;;;;7.43;0.90;;;;;;;;;;5000479;28;20052;-90
2022/12/08 06:33:11;;;;;;;3.55;0.80;;;;;;;;;;4983058;28;20136;-90
2022/12/08 06:35:37;;;;;;;3.17;1.00;;;;;;;;;;4991619;28;20133;-90
2022/12/08 06:38:07;;;;;;;6.18;1.13;;;;;;;;;;5019419;28;20031;-90
2022/12/08 06:40:34;;;;;;;2.72;0.80;;;;;;;;;;4981627;28;20046;-89
2022/12/08 06:43:00;;;;;;;1.88;0.68;;;;;;;;;;4983752;28;20038;-90
2022/12/08 06:45:26;;;;;;;0.95;0.50;;;;;;;;;;5009006;28;20394;-90
2022/12/08 06:47:52;;;;;;;2.75;0.80;;;;;;;;;;5008297;28;20139;-90
2022/12/08 06:50:39;;;;;;;2.65;1.00;;;;;;;;;;4986473;28;20038;-89
2022/12/08 06:53:05;;;;;;;2.80;1.20;;;;;;;;;;5000953;28;20045;-89
2022/12/08 06:55:31;;;;;;;4.75;0.70;;;;;;;;;;4990296;28;20366;-91
2022/12/08 06:57:57;;;;;;;3.70;0.68;;;;;;;;;;5019781;28;20034;-90
2022/12/08 07:00:30;;;;;;;1.40;0.57;;;;;;;;;;4990041;28;20038;-89
2022/12/08 07:02:58;;;;;;;2.55;0.75;;;;;;;;;;5018389;28;20041;-89
2022/12/08 07:05:25;;;;;;;4.28;0.63;;;;;;;;;;4991653;28;20038;-88
2022/12/08 07:07:51;;;;;;;2.78;0.80;;;;;;;;;;5002603;28;20041;-88
2022/12/08 07:10:17;;;;;;;1.00;0.65;;;;;;;;;;4997465;28;20035;-88
2022/12/08 07:12:43;;;;;;;3.58;0.80;;;;;;;;;;4986829;28;20482;-89
2022/12/08 07:15:09;;;;;;;4.25;1.08;;;;;;;;;;4995474;28;20448;-89
2022/12/08 07:17:35;;;;;;;6.93;1.48;;;;;;;;;;4988614;28;20042;-88
2022/12/08 07:20:02;;;;;;;2.80;1.00;;;;;;;;;;5003230;28;20037;-88
2022/12/08 07:22:28;;;;;;;4.63;1.38;;;;;;;;;;4992646;28;20104;-89
2022/12/08 07:24:54;;;;;;;5.25;1.10;;;;;;;;;;4988681;28;20038;-88
2022/12/08 07:27:20;;;;;;;2.83;1.02;;;;;;;;;;5009002;28;20117;-88
2022/12/08 07:29:46;;;;;;;2.22;1.05;;;;;;;;;;4999338;28;20140;-88
2022/12/08 07:32:12;;;;;;;10.57;1.25;;;;;;;;;;5011872;28;20054;-89
2022/12/08 07:34:38;;;;;;;5.10;1.10;;;;;;;;;;4992460;28;20186;-88
2022/12/08 07:37:04;;;;;;;2.30;0.95;;;;;;;;;;5023744;28;20065;-89
2022/12/08 07:39:30;;;;;;;2.88;1.00;;;;;;;;;;5017963;28;20044;-88
2022/12/08 07:41:56;;;;;;;8.30;1.23;;;;;;;;;;5005990;28;20061;-89
2022/12/08 07:44:22;;;;;;;6.40;1.65;;;;;;;;;;4992944;28;20030;-88
2022/12/08 07:46:48;;;;;;;4.70;1.50;;;;;;;;;;5004698;28;20037;-89
2022/12/08 07:49:14;;;;;;;9.35;1.23;;;;;;;;;;5019140;28;20049;-89
2022/12/08 07:51:40;;;;;;;5.20;1.30;;;;;;;;;;5006616;28;20125;-88
2022/12/08 07:54:09;;;;;;;2.63;1.10;;;;;;;;;;5002366;28;20488;-88
2022/12/08 07:56:35;;;;;;;5.55;1.60;;;;;;;;;;5006426;28;20580;-88
2022/12/08 07:59:02;;;;;;;2.95;1.02;;;;;;;;;;5004461;28;20481;-88
2022/12/08 08:01:29;;;;;;;3.55;1.10;;;;;;;;;;4987073;28;20037;-89
2022/12/08 08:03:56;;;;;;;2.75;1.10;;;;;;;;;;4999769;28;20595;-89
2022/12/08 08:06:23;;;;;;;2.90;0.70;;;;;;;;;;4997910;28;20037;-88
2022/12/08 08:08:49;;;;;;;5.40;1.75;;;;;;;;;;4999110;28;20030;-88
2022/12/08 08:11:15;;;;;;;9.80;1.98;;;;;;;;;;4994791;28;20030;-89
2022/12/08 08:13:41;;;;;;;9.85;1.58;;;;;;;;;;4986340;28;20057;-89
2022/12/08 08:16:08;;;;;;;5.18;1.88;;;;;;;;;;4998375;28;20414;-88
2022/12/08 08:18:41;;;;;;;5.28;1.65;;;;;;;;;;5001142;28;20030;-88
2022/12/08 08:21:14;;;;;;;3.42;1.45;;;;;;;;;;5003719;28;20084;-88
2022/12/08 08:23:40;;;;;;;2.60;1.45;;;;;;;;;;5000048;28;20033;-89
2022/12/08 08:26:06;;;;;;;7.93;1.38;;;;;;;;;;4999051;28;20033;-88
2022/12/08 08:28:32;;;;;;;3.47;1.75;;;;;;;;;;5002876;28;20041;-87
2022/12/08 08:31:24;;;;;;;2.58;1.13;;;;;;;;;;5014576;28;20120;-88
2022/12/08 08:33:50;;;;;;;3.03;1.20;;;;;;;;;;4993186;28;20029;-88
2022/12/08 08:36:39;;;;;;;2.78;1.02;;;;;;;;;;4984765;28;20045;-88
2022/12/08 08:39:06;;;;;;;4.55;1.33;;;;;;;;;;5001882;28;20083;-88
2022/12/08 08:41:34;;;;;;;14.43;1.42;;;;;;;;;;5015164;28;20796;-88
2022/12/08 08:44:01;;;;;;;15.55;1.67;;;;;;;;;;5017250;28;20018;-88
2022/12/08 08:46:27;;;;;;;13.30;1.67;;;;;;;;;;4989512;28;20042;-88
2022/12/08 08:48:53;;;;;;;5.28;1.48;;;;;;;;;;4992617;28;20064;-88
2022/12/08 08:51:19;;;;;;;7.28;1.65;;;;;;;;;;4990472;28;20037;-88
2022/12/08 08:53:45;;;;;;;7.95;1.50;;;;;;;;;;5001430;28;20099;-88
2022/12/08 08:56:14;;;;;;;9.85;1.70;;;;;;;;;;5024072;28;20029;-88
2022/12/08 08:58:40;;;;;;;6.95;1.27;;;;;;;;;;5009505;28;20033;-88
2022/12/08 09:01:08;;;;;;;9.82;1.55;;;;;;;;;;5020997;28;20045;-89
2022/12/08 09:03:34;;;;;;;7.43;1.90;;;;;;;;;;5018581;28;20076;-88
2022/12/08 09:06:00;;;;;;;14.55;2.03;;;;;;;;;;5001309;28;20048;-88
2022/12/08 09:08:26;;;;;;;5.97;1.63;;;;;;;;;;5017378;28;20124;-88
2022/12/08 09:10:52;;;;;;;5.90;1.88;;;;;;;;;;4994778;28;20044;-88
2022/12/08 09:13:18;;;;;;;11.90;2.95;;;;;;;;;;4988138;28;20216;-88
2022/12/08 09:15:44;;;;;;;10.13;3.55;;;;;;;;;;5000151;28;20520;-88
2022/12/08 09:18:11;;;;;;;8.50;2.55;;;;;;;;;;5004810;28;20585;-88
2022/12/08 09:20:50;;;;;;;17.25;2.10;;;;;;;;;;5013518;28;20063;-88
2022/12/08 09:23:16;;;;;;;1.27;0.65;;;;;;;;;;4996206;28;20037;-88
2022/12/08 09:25:44;;;;;;;3.10;2.13;;;;;;;;;;5014682;28;20623;-87
2022/12/08 09:28:11;;;;;;;8.43;1.73;;;;;;;;;;4996616;28;20041;-87
2022/12/08 09:30:37;;;;;;;3.60;1.10;;;;;;;;;;4998228;28;20137;-88
2022/12/08 09:33:03;;;;;;;10.27;2.05;;;;;;;;;;4998570;28;20034;-88
2022/12/08 09:35:29;;;;;;;6.28;1.80;;;;;;;;;;4983528;28;20125;-87
2022/12/08 09:37:55;;;;;;;6.15;2.38;;;;;;;;;;5001953;28;20038;-87
2022/12/08 09:40:23;;;;;;;7.25;2.35;;;;;;;;;;4993027;28;20917;-87
2022/12/08 09:43:04;;;;;;;10.63;2.25;;;;;;;;;;4993115;28;20430;-87
2022/12/08 09:45:33;;;;;;;6.82;2.20;;;;;;;;;;5013459;28;20061;-88
2022/12/08 09:48:06;;;;;;;2.55;1.42;;;;;;;;;;5002055;28;20036;-87
2022/12/08 09:50:53;;;;;;;3.95;2.05;;;;;;;;;;5000527;28;20436;-87
2022/12/08 09:53:21;;;;;;;12.82;2.25;;;;;;;;;;5013220;28;20048;-88
2022/12/08 09:55:51;;;;;;;3.13;1.33;;;;;;;;;;4999640;28;20114;-88
2022/12/08 09:58:37;;;;;;;11.02;2.13;;;;;;;;;;5011075;28;20057;-87
2022/12/08 10:01:03;;;;;;;;;;;;;;;;;;4990023;28;20136;-87
2022/12/08 10:03:30;;;;;;;18.92;2.15;;;;;;;;;;5002592;28;19980;-87
2022/12/08 10:06:06;;;;;;;7.80;2.15;;;;;;;;;;5015085;28;20493;-87
2022/12/08 10:08:32;;;;;;;;;;;;;;;;;;5014283;28;20092;-87
2022/12/08 10:10:59;;;;;;;3.75;1.77;;;;;;;;;;5016148;28;19913;-88
2022/12/08 10:13:25;;;;;;;6.07;2.13;;;;;;;;;;4999232;28;20536;-88
2022/12/08 10:16:10;;;;;;;10.77;2.30;;;;;;;;;;4997876;28;20025;-88
2022/12/08 10:18:36;;;;;;;8.57;2.53;;;;;;;;;;5018179;28;20470;-88
2022/12/08 10:21:17;;;;;;;7.90;2.88;;;;;;;;;;4988030;28;20048;-88
2022/12/08 10:23:45;;;;;;;3.38;1.75;;;;;;;;;;5002116;28;20033;-88
2022/12/08 10:26:13;;;;;;;5.82;2.47;;;;;;;;;;5005769;28;20034;-88
2022/12/08 10:28:39;;;;;;;5.43;2.20;;;;;;;;;;5002296;28;20397;-88
2022/12/08 10:31:05;;;;;;;7.43;1.80;;;;;;;;;;4978171;28;20030;-88
2022/12/08 10:33:35;;;;;;;10.77;2.17;;;;;;;;;;5002834;28;20389;-87
2022/12/08 10:36:03;;;;;;;8.10;3.10;;;;;;;;;;5007608;28;20026;-87
2022/12/08 10:38:31;;;;;;;12.85;3.13;;;;;;;;;;5014531;28;20037;-87
2022/12/08 10:41:16;;;;;;;5.13;2.50;;;;;;;;;;4995624;28;20029;-87
2022/12/08 10:44:01;;;;;;;6.03;1.80;;;;;;;;;;4998295;28;20037;-87
2022/12/08 10:46:28;;;;;;;2.53;1.13;;;;;;;;;;5015732;28;20045;-88
2022/12/08 10:48:59;;;;;;;4.90;1.25;;;;;;;;;;4992170;28;20536;-88
2022/12/08 10:51:34;;;;;;;4.78;1.17;;;;;;;;;;5004774;28;20040;-87
2022/12/08 10:54:02;;;;;;;2.75;1.08;;;;;;;;;;4999333;28;20485;-88
2022/12/08 10:56:29;;;;;;;3.10;1.40;;;;;;;;;;5003115;28;20080;-87
2022/12/08 10:59:07;;;;;;;8.85;1.98;;;;;;;;;;5010423;28;20037;-91
2022/12/08 11:01:35;;;;;;;5.47;1.48;;;;;;;;;;5011940;28;20060;-91
2022/12/08 11:04:03;;;;;;;4.60;1.73;;;;;;;;;;5012109;28;20436;-92
2022/12/08 11:06:56;;;;;;;4.45;1.27;;;;;;;;;;4997742;28;20095;-92
2022/12/08 11:09:45;;;;;;;10.85;1.67;;;;;;;;;;5020832;28;20034;-90
2022/12/08 11:12:16;;;;;;;5.07;1.38;;;;;;;;;;5008182;28;20370;-92
2022/12/08 11:14:48;;;;;;;2.72;1.00;;;;;;;;;;5015117;28;20539;-91
2022/12/08 11:17:25;;;;;;;3.28;1.00;;;;;;;;;;5012221;28;20057;-90
2022/12/08 11:20:14;;;;;;;5.60;1.10;;;;;;;;;;5013715;28;20029;-91
2022/12/08 11:22:46;;;;;;;7.45;1.30;;;;;;;;;;5004431;28;20073;-91
2022/12/08 11:25:26;;;;;;;5.80;1.20;;;;;;;;;;5013740;28;20069;-91
2022/12/08 11:28:03;;;;;;;0.95;0.85;;;;;;;;;;5005165;28;20141;-92
2022/12/08 11:30:31;;;;;;;1.52;0.70;;;;;;;;;;5004733;28;20085;-91
2022/12/08 11:33:18;;;;;;;3.40;1.08;;;;;;;;;;5002878;28;20033;-92
2022/12/08 11:35:45;;;;;;;1.92;0.45;;;;;;;;;;5003946;28;20107;-91
2022/12/08 11:38:13;;;;;;;1.33;0.70;;;;;;;;;;4987831;28;20406;-91
2022/12/08 11:41:03;;;;;;;1.67;0.77;;;;;;;;;;5018240;28;20041;-91
2022/12/08 11:43:35;;;;;;;6.00;1.02;;;;;;;;;;5000523;28;20394;-90
2022/12/08 11:46:03;;;;;;;1.75;0.95;;;;;;;;;;5017269;28;20030;-91
2022/12/08 11:48:52;;;;;;;3.35;0.85;;;;;;;;;;5001324;28;20041;-91
2022/12/08 11:51:23;;;;;;;2.50;0.35;;;;;;;;;;5015639;28;20350;-92
2022/12/08 11:53:55;;;;;;;4.05;0.93;;;;;;;;;;5015819;28;20482;-90
2022/12/08 11:56:24;;;;;;;2.65;0.40;;;;;;;;;;4996843;28;20496;-91
2022/12/08 11:58:55;;;;;;;4.13;0.60;;;;;;;;;;5016231;28;20025;-91
2022/12/08 12:01:41;;;;;;;3.35;0.60;;;;;;;;;;5007603;28;20040;-91
2022/12/08 12:04:07;;;;;;;3.38;0.20;;;;;;;;;;5004109;28;20639;-90
2022/12/08 12:06:52;;;;;;;1.40;0.47;;;;;;;;;;5003115;28;20041;-92
2022/12/08 12:09:37;;;;;;;0.57;0.30;;;;;;;;;;4999461;28;20037;-91
2022/12/08 12:12:22;;;;;;;1.80;0.40;;;;;;;;;;5019089;28;20084;-91
2022/12/08 12:14:49;;;;;;;1.70;0.50;;;;;;;;;;5004642;28;20026;-91
2022/12/08 12:17:24;;;;;;;1.25;0.70;;;;;;;;;;5015772;28;20034;-92
2022/12/08 12:19:52;;;;;;;3.30;0.60;;;;;;;;;;5003911;28;20118;-91
2022/12/08 12:22:20;;;;;;;3.75;0.70;;;;;;;;;;5005464;28;20052;-91
2022/12/08 12:24:49;;;;;;;4.90;0.70;;;;;;;;;;5008157;28;20120;-91
2022/12/08 12:27:23;;;;;;;1.75;0.65;;;;;;;;;;5005207;28;20116;-91
2022/12/08 12:30:08;;;;;;;1.80;0.60;;;;;;;;;;5021569;28;20508;-91
2022/12/08 12:33:10;;;;;;;1.20;1.10;;;;;;;;;;5017562;28;20509;-91
2022/12/08 12:35:40;;;;;;;2.47;0.73;;;;;;;;;;4978124;28;20095;-91
2022/12/08 12:41:10;;;;;;;2.55;0.75;;;;;;;;;;5025800;28;20075;-91
2022/12/08 12:43:37;;;;;;;5.20;0.90;;;;;;;;;;5001948;28;20041;-92
2022/12/08 12:46:19;;;;;;;1.23;0.73;;;;;;;;;;5007539;28;20248;-91
2022/12/08 12:48:45;;;;;;;3.47;0.90;;;;;;;;;;5020754;28;20041;-91
2022/12/08 12:51:32;;;;;;;4.07;1.83;;;;;;;;;;5021734;28;20037;-91
2022/12/08 12:54:18;;;;;;;2.83;0.90;;;;;;;;;;5014915;28;20018;-91
2022/12/08 12:56:53;;;;;;;7.32;0.70;;;;;;;;;;5018775;28;20034;-90
2022/12/08 12:59:31;;;;;;;3.70;0.95;;;;;;;;;;5008262;28;20033;-92
2022/12/08 13:01:57;;;;;;;1.05;0.68;;;;;;;;;;5008075;28;20033;-92
2022/12/08 13:04:32;;;;;;;2.05;1.05;;;;;;;;;;4997322;28;20237;-91
2022/12/08 13:06:58;;;;;;;0.50;0.25;;;;;;;;;;5007178;28;20048;-91
2022/12/08 13:09:38;;;;;;;3.10;0.45;;;;;;;;;;5002710;28;20389;-91
2022/12/08 13:12:22;;;;;;;1.00;0.43;;;;;;;;;;5001767;28;20548;-91
2022/12/08 13:14:49;;;;;;;0.88;0.40;;;;;;;;;;5022117;28;20029;-91
2022/12/08 13:17:29;;;;;;;1.75;0.73;;;;;;;;;;5018931;28;20029;-91
2022/12/08 13:19:57;;;;;;;2.25;0.55;;;;;;;;;;5005252;28;20029;-91
2022/12/08 13:22:42;;;;;;;3.20;0.88;;;;;;;;;;5001283;28;20042;-90
2022/12/08 13:25:27;;;;;;;5.07;1.05;;;;;;;;;;4998607;28;20033;-90
2022/12/08 13:27:54;;;;;;;2.80;0.85;;;;;;;;;;5004684;28;20042;-90
2022/12/08 13:30:39;;;;;;;1.52;0.45;;;;;;;;;;5001114;28;20067;-89
2022/12/08 13:33:18;;;;;;;4.35;0.50;;;;;;;;;;4997905;28;20096;-90
2022/12/08 13:36:13;;;;;;;3.65;0.63;;;;;;;;;;4992948;28;20030;-90
2022/12/08 13:38:42;;;;;;;3.33;0.95;;;;;;;;;;4917272;28;20047;-90
2022/12/08 13:41:22;;;;;;;1.85;1.13;;;;;;;;;;5003574;28;20095;-90
2022/12/08 13:43:57;;;;;;;4.50;1.02;;;;;;;;;;4999790;28;20121;-90
2022/12/08 13:46:31;;;;;;;1.08;0.70;;;;;;;;;;4996775;28;20049;-90
2022/12/08 13:49:08;;;;;;;1.45;0.52;;;;;;;;;;5009333;28;20030;-90
2022/12/08 13:51:57;;;;;;;5.35;0.50;;;;;;;;;;5004108;28;20328;-91
2022/12/08 13:54:33;;;;;;;0.82;0.47;;;;;;;;;;5000552;28;20322;-90
2022/12/08 13:57:00;;;;;;;1.90;0.77;;;;;;;;;;5002232;28;20030;-89
2022/12/08 13:59:32;;;;;;;3.42;0.60;;;;;;;;;;4995427;28;20041;-90
2022/12/08 14:02:21;;;;;;;2.60;0.40;;;;;;;;;;5003957;28;20391;-90
2022/12/08 14:04:48;;;;;;;3.42;0.45;;;;;;;;;;4990401;28;20041;-90
2022/12/08 14:07:20;;;;;;;1.60;0.60;;;;;;;;;;5002747;28;20453;-91
2022/12/08 14:10:54;;;;;;;0.82;0.63;;;;;;;;;;5008789;28;20297;-91
2022/12/08 14:13:22;;;;;;;1.30;0.88;;;;;;;;;;5005193;28;20037;-90
2022/12/08 14:15:58;;;;;;;6.43;1.00;;;;;;;;;;5007898;28;20034;-90
2022/12/08 14:18:24;;;;;;;;;;;;;;;;;;5005568;28;20046;-90
2022/12/08 14:21:16;;;;;;;4.25;0.77;;;;;;;;;;5004157;28;19932;-90
2022/12/08 14:23:55;;;;;;;13.10;1.10;;;;;;;;;;4999524;28;20057;-91
2022/12/08 14:26:22;;;;;;;4.30;1.20;;;;;;;;;;5007399;28;20110;-91
2022/12/08 14:28:51;;;;;;;2.25;1.35;;;;;;;;;;4990565;28;20238;-90
2022/12/08 14:31:20;;;;;;;4.25;1.50;;;;;;;;;;4994388;28;20494;-90
2022/12/08 14:33:48;;;;;;;2.58;1.17;;;;;;;;;;4996423;28;20274;-91
2022/12/08 14:36:21;;;;;;;3.20;1.30;;;;;;;;;;4987039;28;20057;-90
2022/12/08 14:38:53;;;;;;;3.10;1.40;;;;;;;;;;4995951;28;20039;-91
2022/12/08 14:41:26;;;;;;;28.33;10.40;;;;;;;;;;4999231;28;20030;-91
2022/12/08 14:44:07;;;;;;;19.70;7.90;;;;;;;;;;4997535;28;20084;-91
2022/12/08 14:46:36;;;;;;;13.43;5.50;;;;;;;;;;4990362;28;20046;-90
2022/12/08 14:49:35;;;;;;;11.45;3.55;;;;;;;;;;5018538;28;20045;-91
2022/12/08 14:52:21;;;;;;;5.95;2.72;;;;;;;;;;5012328;28;20578;-90
2022/12/08 14:54:49;;;;;;;4.75;1.98;;;;;;;;;;4999690;28;20034;-92
2022/12/08 14:57:44;;;;;;;2.88;1.15;;;;;;;;;;5010854;28;20042;-91
2022/12/08 15:00:57;;;;;;;5.97;1.58;;;;;;;;;;5016823;28;20030;-91
2022/12/08 15:03:38;;;;;;;5.03;1.90;;;;;;;;;;4970254;28;20034;-91
2022/12/08 15:06:11;;;;;;;7.78;2.58;;;;;;;;;;5007001;28;20041;-91
2022/12/08 15:08:58;;;;;;;4.97;2.42;;;;;;;;;;4994517;28;20038;-91
2022/12/08 15:11:50;;;;;;;7.97;3.05;;;;;;;;;;4997874;28;20585;-91
2022/12/08 15:14:38;;;;;;;12.63;3.08;;;;;;;;;;5011069;28;20036;-92
2022/12/08 15:17:28;;;;;;;4.32;1.80;;;;;;;;;;5024665;28;20034;-91